Time;durP1;ratioP1;P1;durP2;ratioP2;P2;SDS_P1;SDS_P2;PMS_P1;PMS_P2;Temp;Humidity;BMP_temperature;BMP_pressure;BME280_temperature;BME280_humidity;BME280_pressure;Samples;Min_cycle;Max_cycle;Signal;HPM_P1;HPM_P2
2022/05/21 00:00:14;;;;;;;13.88;8.13;;;;;;;10.63;85.13;101879.69;5110444;28;20106;-73
2022/05/21 00:02:39;;;;;;;15.20;8.85;;;;;;;10.62;85.46;101880.66;5107485;28;20039;-71
2022/05/21 00:05:05;;;;;;;14.38;8.10;;;;;;;10.64;86.13;101884.19;5103360;28;20028;-72
2022/05/21 00:07:31;;;;;;;12.77;8.32;;;;;;;10.66;85.71;101880.41;5106112;28;20067;-69
2022/05/21 00:09:56;;;;;;;14.60;8.00;;;;;;;10.67;86.00;101875.84;5103156;28;20043;-69
2022/05/21 00:12:22;;;;;;;13.98;7.43;;;;;;;10.71;85.34;101888.31;5111910;28;20031;-68
2022/05/21 00:14:47;;;;;;;13.98;8.27;;;;;;;10.70;86.23;101884.72;5110608;28;20483;-69
2022/05/21 00:17:12;;;;;;;12.18;6.95;;;;;;;10.73;85.13;101880.97;5111504;28;20111;-69
2022/05/21 00:19:38;;;;;;;13.43;6.53;;;;;;;10.75;85.65;101889.03;5105880;28;20063;-69
2022/05/21 00:22:03;;;;;;;15.20;6.97;;;;;;;10.77;84.84;101889.81;5108004;28;20085;-69
2022/05/21 00:24:29;;;;;;;9.93;6.28;;;;;;;10.73;85.38;101881.84;5104247;28;20019;-71
2022/05/21 00:26:54;;;;;;;10.70;6.30;;;;;;;10.68;84.66;101881.22;5111802;28;20032;-73
2022/05/21 00:29:20;;;;;;;14.48;6.57;;;;;;;10.70;85.05;101889.28;5111426;28;20101;-74
2022/05/21 00:31:46;;;;;;;14.90;7.35;;;;;;;10.68;85.33;101888.50;5110658;28;20036;-73
2022/05/21 00:34:11;;;;;;;9.45;5.97;;;;;;;10.65;85.66;101891.38;5097665;28;20387;-69
2022/05/21 00:36:36;;;;;;;10.10;6.63;;;;;;;10.63;85.15;101886.03;5108908;28;20032;-72
2022/05/21 00:39:02;;;;;;;10.35;6.20;;;;;;;10.62;85.60;101884.25;5108329;28;20032;-69
2022/05/21 00:41:28;;;;;;;9.77;5.95;;;;;;;10.66;85.47;101891.28;5110432;28;20479;-72
2022/05/21 00:43:57;;;;;;;12.18;5.97;;;;;;;10.72;85.90;101890.97;5102485;28;20039;-72
2022/05/21 00:46:31;;;;;;;12.48;5.90;;;;;;;10.77;85.65;101893.44;5110213;28;20062;-69
2022/05/21 00:49:25;;;;;;;11.43;6.35;;;;;;;10.81;85.08;101895.00;5110074;28;20035;-69
2022/05/21 00:52:08;;;;;;;10.90;5.80;;;;;;;10.86;85.05;101892.00;5104796;28;20040;-68
2022/05/21 00:54:37;;;;;;;8.02;5.35;;;;;;;10.90;85.32;101899.03;5102576;28;20034;-70
2022/05/21 00:57:37;;;;;;;9.90;5.50;;;;;;;10.93;84.99;101891.56;5098036;28;20039;-72
2022/05/21 01:00:14;;;;;;;8.18;4.43;;;;;;;10.96;85.40;101896.84;5075522;28;20055;-69
2022/05/21 01:02:47;;;;;;;10.77;5.38;;;;;;;10.98;85.02;101892.19;5101115;28;20038;-71
2022/05/21 01:05:15;;;;;;;8.68;4.60;;;;;;;11.01;84.94;101891.16;5110656;28;20084;-69
2022/05/21 01:07:44;;;;;;;10.77;4.28;;;;;;;11.03;85.03;101891.06;5107688;28;20031;-74
2022/05/21 01:10:11;;;;;;;11.50;4.32;;;;;;;11.07;84.39;101889.91;5109370;28;20031;-71
2022/05/21 01:12:40;;;;;;;8.18;4.35;;;;;;;11.05;84.37;101879.13;5110805;28;20024;-72
2022/05/21 01:15:10;;;;;;;8.35;4.97;;;;;;;11.11;84.49;101886.06;5110770;28;20084;-69
2022/05/21 01:17:36;;;;;;;13.18;4.63;;;;;;;11.13;84.63;101889.53;5107332;28;20032;-74
2022/05/21 01:20:08;;;;;;;6.32;3.88;;;;;;;11.13;84.29;101882.25;5110625;28;20039;-68
2022/05/21 01:22:44;;;;;;;9.35;4.68;;;;;;;11.13;84.08;101882.25;5109059;28;20042;-69
2022/05/21 01:25:12;;;;;;;11.80;5.20;;;;;;;11.13;84.48;101881.38;5107555;28;20047;-71
2022/05/21 01:27:38;;;;;;;9.88;3.83;;;;;;;11.15;84.69;101888.50;5110510;28;20028;-68
2022/05/21 01:30:06;;;;;;;9.88;3.97;;;;;;;11.16;84.72;101879.34;5110629;28;20031;-69
2022/05/21 01:32:32;;;;;;;8.00;3.58;;;;;;;11.18;84.25;101881.97;5109352;28;20478;-74
2022/05/21 01:34:57;;;;;;;7.82;3.78;;;;;;;11.20;84.30;101883.66;5110704;28;20027;-71
2022/05/21 01:37:23;;;;;;;8.23;3.55;;;;;;;11.20;84.19;101883.66;5110603;28;20028;-69
2022/05/21 01:39:48;;;;;;;10.40;3.38;;;;;;;11.21;84.43;101881.81;5107083;28;20031;-68
2022/05/21 01:42:14;;;;;;;13.13;3.97;;;;;;;11.23;84.27;101882.59;5110479;28;20036;-73
2022/05/21 01:44:40;;;;;;;8.00;3.60;;;;;;;11.21;84.21;101869.06;5109116;28;20031;-72
2022/05/21 01:47:11;;;;;;;5.40;3.80;;;;;;;11.24;83.61;101873.47;5108933;28;20118;-73
2022/05/21 01:49:37;;;;;;;9.05;4.10;;;;;;;11.24;84.20;101868.91;5107100;28;20043;-72
2022/05/21 01:52:04;;;;;;;12.65;4.15;;;;;;;11.22;84.46;101870.81;5108958;28;20043;-68
2022/05/21 01:54:31;;;;;;;10.43;3.83;;;;;;;11.24;84.21;101868.91;5103225;28;20494;-68
2022/05/21 01:56:56;;;;;;;9.52;4.55;;;;;;;11.26;84.64;101876.09;5089883;28;20127;-69
2022/05/21 01:59:22;;;;;;;11.52;4.15;;;;;;;11.28;83.88;101875.03;5109364;28;20118;-72
2022/05/21 02:01:48;;;;;;;6.88;3.80;;;;;;;11.29;84.37;101881.38;5113105;28;20817;-72
2022/05/21 02:04:15;;;;;;;9.57;4.07;;;;;;;11.27;84.30;101876.00;5111937;28;20111;-68
2022/05/21 02:06:40;;;;;;;9.88;3.72;;;;;;;11.31;83.62;101880.31;5113094;28;20118;-73
2022/05/21 02:09:06;;;;;;;14.95;5.68;;;;;;;11.33;83.87;101882.91;5092618;28;20534;-68
2022/05/21 02:11:31;;;;;;;12.45;5.28;;;;;;;11.33;84.77;101883.84;5112413;28;20035;-71
2022/05/21 02:13:56;;;;;;;10.88;4.72;;;;;;;11.34;84.01;101879.25;5114406;28;20091;-70
2022/05/21 02:16:22;;;;;;;7.70;4.88;;;;;;;11.35;83.69;101879.16;5112958;28;20367;-68
2022/05/21 02:18:47;;;;;;;9.85;4.47;;;;;;;11.38;84.14;101886.28;5112362;28;20450;-73
2022/05/21 02:21:12;;;;;;;11.35;5.03;;;;;;;11.37;84.62;101892.69;5107073;28;20056;-72
2022/05/21 02:23:38;;;;;;;11.98;5.63;;;;;;;11.38;84.72;101894.47;5102117;28;20044;-73
2022/05/21 02:26:03;;;;;;;17.42;5.22;;;;;;;11.37;84.20;101889.94;5113934;28;20398;-73
2022/05/21 02:28:29;;;;;;;9.38;4.38;;;;;;;11.39;84.50;101888.03;5112512;28;20051;-70
2022/05/21 02:30:55;;;;;;;9.30;5.53;;;;;;;11.40;84.30;101890.66;5110100;28;20040;-68
2022/05/21 02:33:21;;;;;;;9.30;4.60;;;;;;;11.41;84.09;101883.34;5113581;28;20074;-68
2022/05/21 02:35:46;;;;;;;7.13;4.57;;;;;;;11.37;84.38;101879.94;5108103;28;20507;-72
2022/05/21 02:41:11;;;;;;;12.85;4.85;;;;;;;11.40;84.44;101881.59;5052465;28;20056;-73
2022/05/21 02:43:36;;;;;;;13.40;5.40;;;;;;;11.40;84.74;101873.44;5106127;28;20045;-69
2022/05/21 02:46:02;;;;;;;11.02;4.82;;;;;;;11.40;84.64;101882.47;5112309;28;20023;-71
2022/05/21 02:48:29;;;;;;;12.32;5.32;;;;;;;11.42;84.57;101879.66;5112413;28;20557;-71
2022/05/21 02:50:55;;;;;;;15.88;5.32;;;;;;;11.43;84.55;101885.03;5112396;28;20048;-68
2022/05/21 02:53:21;;;;;;;15.10;5.40;;;;;;;11.44;84.61;101889.50;5110774;28;20087;-70
2022/05/21 02:55:47;;;;;;;9.48;5.20;;;;;;;11.43;84.43;101886.88;5113106;28;20016;-70
2022/05/21 02:58:13;;;;;;;13.95;5.60;;;;;;;11.46;84.54;101886.69;5093479;28;20058;-69
2022/05/21 03:00:38;;;;;;;10.10;4.60;;;;;;;11.46;84.12;101878.50;5111141;28;20086;-69
2022/05/21 03:03:04;;;;;;;13.43;5.65;;;;;;;11.44;84.80;101881.34;5113096;28;20157;-69
2022/05/21 03:05:31;;;;;;;11.80;4.78;;;;;;;11.46;84.15;101889.41;5111385;28;20016;-70
2022/05/21 03:07:56;;;;;;;8.52;4.63;;;;;;;11.45;84.51;101876.75;5111582;28;20039;-69
2022/05/21 03:10:27;;;;;;;17.15;5.50;;;;;;;11.47;84.57;101896.59;5111767;28;20111;-71
2022/05/21 03:12:55;;;;;;;10.20;4.88;;;;;;;11.46;83.91;101886.69;5111902;28;20039;-71
2022/05/21 03:15:27;;;;;;;9.82;4.97;;;;;;;11.48;83.99;101899.25;5112761;28;20042;-71
2022/05/21 03:17:53;;;;;;;14.48;5.95;;;;;;;11.49;84.45;101890.09;5093750;28;20119;-71
2022/05/21 03:20:20;;;;;;;12.70;6.20;;;;;;;11.50;84.12;101877.34;5111827;28;20122;-72
2022/05/21 03:22:46;;;;;;;11.35;5.65;;;;;;;11.50;84.20;101885.53;5111620;28;20027;-69
2022/05/21 03:25:11;;;;;;;15.68;5.78;;;;;;;11.50;84.74;101875.50;5111422;28;20023;-68
2022/05/21 03:27:37;;;;;;;16.08;5.75;;;;;;;11.50;84.40;101872.78;5111418;28;20025;-71
2022/05/21 03:30:05;;;;;;;12.50;6.13;;;;;;;11.49;84.63;101881.94;5111092;28;20062;-68
2022/05/21 03:32:30;;;;;;;15.75;6.45;;;;;;;11.52;84.47;101879.97;5096668;28;20047;-71
2022/05/21 03:34:55;;;;;;;18.83;6.53;;;;;;;11.51;84.87;101887.28;5112100;28;20441;-69
2022/05/21 03:37:21;;;;;;;13.40;5.55;;;;;;;11.50;84.08;101891.84;5112310;28;20507;-73
2022/05/21 03:39:46;;;;;;;14.13;5.22;;;;;;;11.50;84.37;101890.97;5109334;27;20412;-72
2022/05/21 03:42:11;;;;;;;13.18;5.63;;;;;;;11.51;84.29;101892.72;5111303;28;20410;-73
2022/05/21 03:44:37;;;;;;;14.30;6.05;;;;;;;11.49;84.81;101895.56;5112372;28;20501;-73
2022/05/21 03:47:02;;;;;;;18.48;6.55;;;;;;;11.48;84.49;101884.75;5110140;28;20394;-69
2022/05/21 03:49:28;;;;;;;14.77;6.03;;;;;;;11.50;84.85;101904.63;5112632;27;20514;-69
2022/05/21 03:51:54;;;;;;;15.73;6.45;;;;;;;11.47;84.57;101894.78;5111990;28;20035;-69
2022/05/21 03:54:19;;;;;;;14.60;5.82;;;;;;;11.47;84.89;101896.59;5109022;28;20491;-73
2022/05/21 03:56:44;;;;;;;11.55;5.43;;;;;;;11.47;84.90;101902.97;5092773;28;20126;-73
2022/05/21 03:59:10;;;;;;;14.75;6.40;;;;;;;11.48;84.83;101904.72;5103744;28;20074;-68
2022/05/21 04:01:36;;;;;;;14.10;6.47;;;;;;;11.48;84.42;101901.13;5086833;28;20027;-72
2022/05/21 04:04:01;;;;;;;9.20;5.53;;;;;;;11.50;84.08;101899.16;5110923;28;20034;-69
2022/05/21 04:06:27;;;;;;;15.02;6.53;;;;;;;11.45;85.31;101891.25;5101320;28;20031;-71
2022/05/21 04:08:52;;;;;;;14.90;5.68;;;;;;;11.43;84.77;101893.22;5105719;28;20067;-67
2022/05/21 04:11:18;;;;;;;13.48;6.65;;;;;;;11.48;84.67;101907.44;5111900;28;20508;-72
2022/05/21 04:13:43;;;;;;;16.80;7.45;;;;;;;11.46;85.26;101908.47;5111884;28;20024;-69
2022/05/21 04:16:09;;;;;;;17.40;6.50;;;;;;;11.43;85.15;101908.69;5110373;28;20410;-69
2022/05/21 04:18:34;;;;;;;11.38;6.22;;;;;;;11.46;85.04;101906.63;5110213;28;20453;-69
2022/05/21 04:21:00;;;;;;;12.77;6.30;;;;;;;11.50;84.72;101912.78;5109848;28;20023;-70
2022/05/21 04:23:25;;;;;;;17.88;6.78;;;;;;;11.49;85.15;101909.19;5102404;28;20491;-72
2022/05/21 04:25:50;;;;;;;19.80;7.00;;;;;;;11.50;85.50;101919.09;5111812;28;20115;-68
2022/05/21 04:28:16;;;;;;;18.10;6.03;;;;;;;11.52;84.49;101915.41;5109595;28;20066;-73
2022/05/21 04:30:42;;;;;;;15.50;5.72;;;;;;;11.56;84.79;101923.31;5111461;28;20038;-72
2022/05/21 04:33:08;;;;;;;19.55;6.65;;;;;;;11.56;84.96;101915.13;5111413;28;20020;-72
2022/05/21 04:38:17;;;;;;;16.83;6.20;;;;;;;11.61;84.76;101921.22;5104923;28;20023;-72
2022/05/21 04:40:43;;;;;;;19.42;7.05;;;;;;;11.64;85.01;101931.03;5108243;28;20039;-69
2022/05/21 04:43:09;;;;;;;15.35;6.18;;;;;;;11.65;84.77;101930.94;5110435;28;20039;-71
2022/05/21 04:45:35;;;;;;;19.23;6.43;;;;;;;11.68;84.51;101930.78;5110403;28;20438;-73
2022/05/21 04:48:05;;;;;;;17.98;7.18;;;;;;;11.70;84.88;101933.41;5103727;28;20074;-71
2022/05/21 04:50:31;;;;;;;22.98;6.85;;;;;;;11.72;85.02;101934.19;5107667;28;20078;-68
2022/05/21 04:52:56;;;;;;;11.18;6.75;;;;;;;11.77;84.23;101933.94;5108185;28;20494;-71
2022/05/21 04:55:21;;;;;;;11.30;6.75;;;;;;;11.80;85.24;101920.09;5106606;28;20063;-69
2022/05/21 04:57:47;;;;;;;21.27;7.28;;;;;;;11.84;84.16;101935.31;5093079;28;20123;-72
2022/05/21 05:00:12;;;;;;;17.17;8.30;;;;;;;11.85;85.05;101940.72;5107004;28;20035;-68
2022/05/21 05:02:38;;;;;;;19.95;8.48;;;;;;;11.91;84.75;101932.16;5108233;28;20030;-72
2022/05/21 05:05:05;;;;;;;22.65;8.60;;;;;;;11.92;83.95;101935.75;5106841;28;20039;-68
2022/05/21 05:07:31;;;;;;;20.48;8.05;;;;;;;11.93;84.10;101935.66;5098264;28;20024;-71
2022/05/21 05:09:56;;;;;;;20.60;7.80;;;;;;;11.98;84.33;101941.72;5101746;28;20085;-69
2022/05/21 05:12:21;;;;;;;22.80;8.35;;;;;;;12.02;84.05;101939.66;5087703;28;20035;-70
2022/05/21 05:14:47;;;;;;;24.30;8.80;;;;;;;12.08;83.56;101935.72;5098652;28;20142;-68
2022/05/21 05:17:13;;;;;;;17.38;8.65;;;;;;;12.09;84.07;101940.19;5105022;28;20081;-71
2022/05/21 05:19:39;;;;;;;21.88;8.10;;;;;;;12.12;83.81;101946.31;5104764;28;20394;-67
2022/05/21 05:22:09;;;;;;;13.05;7.50;;;;;;;12.14;83.06;101952.56;5100832;28;20034;-69
2022/05/21 05:24:35;;;;;;;19.85;7.93;;;;;;;12.08;83.75;101950.22;5100441;28;20027;-71
2022/05/21 05:27:01;;;;;;;13.57;7.50;;;;;;;12.12;83.66;101959.94;5106102;28;20036;-71
2022/05/21 05:29:26;;;;;;;19.35;7.57;;;;;;;12.16;83.45;101963.38;5101551;28;20467;-67
2022/05/21 05:31:52;;;;;;;19.42;9.05;;;;;;;12.19;83.97;101966.81;5103043;28;20051;-74
2022/05/21 05:34:17;;;;;;;18.73;8.80;;;;;;;12.16;83.67;101961.53;5089042;28;20126;-70
2022/05/21 05:36:42;;;;;;;21.38;8.63;;;;;;;12.21;84.22;101974.88;5101538;28;20616;-71
2022/05/21 05:39:08;;;;;;;21.80;9.23;;;;;;;12.27;84.07;101973.66;5099048;28;20040;-68
2022/05/21 05:41:37;;;;;;;27.17;11.35;;;;;;;12.36;83.93;101978.53;5094999;28;20100;-73
2022/05/21 05:44:02;;;;;;;13.73;7.75;;;;;;;12.41;83.82;101976.41;5105524;28;20035;-69
2022/05/21 05:46:27;;;;;;;18.83;8.63;;;;;;;12.46;83.23;101975.16;5107293;28;20558;-69
2022/05/21 05:48:53;;;;;;;22.63;10.02;;;;;;;12.57;83.83;101970.84;5108365;28;20406;-71
2022/05/21 05:51:19;;;;;;;26.20;10.90;;;;;;;12.64;82.79;101964.06;5107434;28;20040;-69
2022/05/21 05:53:46;;;;;;;28.30;10.50;;;;;;;12.72;82.53;101972.59;5106370;28;20031;-73
2022/05/21 05:56:11;;;;;;;22.27;10.13;;;;;;;12.85;82.80;101969.97;5093699;28;20101;-68
2022/05/21 06:01:23;;;;;;;20.92;10.57;;;;;;;12.98;82.15;101982.75;5100925;28;20406;-69
2022/05/21 06:03:49;;;;;;;20.98;10.25;;;;;;;13.00;82.14;101969.88;5106759;28;20081;-69
2022/05/21 06:06:15;;;;;;;25.98;11.98;;;;;;;13.04;81.75;101981.47;5105863;28;20399;-69
2022/05/21 06:08:41;;;;;;;24.40;11.07;;;;;;;13.08;82.00;101980.31;5097562;28;20019;-72
2022/05/21 06:11:06;;;;;;;20.40;10.23;;;;;;;13.10;81.89;101978.34;5101600;28;20028;-69
2022/05/21 06:13:33;;;;;;;27.35;10.93;;;;;;;13.13;81.80;101978.16;5089800;28;20107;-68
2022/05/21 06:15:59;;;;;;;24.60;11.75;;;;;;;13.11;81.54;101987.44;5096210;28;20115;-72
2022/05/21 06:18:25;;;;;;;25.80;11.95;;;;;;;13.12;81.53;101981.88;5097332;28;20035;-68
2022/05/21 06:20:50;;;;;;;26.00;10.95;;;;;;;13.11;80.92;101984.72;5089559;28;20035;-68
2022/05/21 06:23:16;;;;;;;24.55;11.73;;;;;;;13.15;81.78;101991.69;5096754;28;20027;-68
2022/05/21 06:25:41;;;;;;;25.17;11.63;;;;;;;13.19;81.44;101990.53;5091706;28;20040;-72
2022/05/21 06:28:07;;;;;;;24.88;12.63;;;;;;;13.26;80.40;101992.81;5108452;28;20027;-68
2022/05/21 06:30:35;;;;;;;22.98;11.95;;;;;;;13.38;79.95;101987.50;5108905;28;20479;-71
2022/05/21 06:33:17;;;;;;;21.77;12.40;;;;;;;13.47;80.38;102003.28;5109567;28;20494;-68
2022/05/21 06:35:43;;;;;;;35.90;13.02;;;;;;;13.59;80.12;101999.75;5099639;28;20036;-69
2022/05/21 06:38:09;;;;;;;23.90;11.95;;;;;;;13.76;78.99;101996.78;5108299;28;20036;-72
2022/05/21 06:40:34;;;;;;;30.05;12.13;;;;;;;13.86;79.24;102005.22;5105354;28;20126;-68
2022/05/21 06:43:00;;;;;;;26.90;11.35;;;;;;;13.94;78.08;102013.81;5108397;28;20066;-71
2022/05/21 06:45:31;;;;;;;23.08;11.63;;;;;;;14.05;78.01;102010.31;5102649;28;20492;-69
2022/05/21 06:48:05;;;;;;;21.23;10.95;;;;;;;14.07;78.15;102021.16;5091641;28;20436;-72
2022/05/21 06:50:31;;;;;;;25.23;11.82;;;;;;;14.09;78.14;102011.00;5103659;28;20051;-73
2022/05/21 06:52:57;;;;;;;26.02;11.65;;;;;;;14.13;78.40;102015.25;5109560;28;20036;-68
2022/05/21 06:55:23;;;;;;;31.77;11.50;;;;;;;14.19;78.54;102014.84;5111289;28;20493;-74
2022/05/21 06:57:49;;;;;;;30.08;11.45;;;;;;;14.28;78.19;102011.47;5112954;28;20023;-68
2022/05/21 07:00:16;;;;;;;22.25;10.88;;;;;;;14.35;77.68;102012.78;5105201;28;20043;-72
2022/05/21 07:02:41;;;;;;;24.67;9.90;;;;;;;14.48;77.70;102016.47;5111835;28;20032;-68
2022/05/21 07:07:52;;;;;;;21.48;10.23;;;;;;;14.68;76.64;102019.66;5110616;28;20111;-70
2022/05/21 07:10:24;;;;;;;25.90;10.88;;;;;;;14.67;77.43;102024.25;5110539;27;20438;-68
2022/05/21 07:12:50;;;;;;;27.73;10.95;;;;;;;14.68;76.47;102025.13;5113019;28;20035;-69
2022/05/21 07:15:16;;;;;;;28.15;10.98;;;;;;;14.64;76.37;102020.84;5100746;28;20143;-68
2022/05/21 07:17:42;;;;;;;23.92;10.95;;;;;;;14.66;76.59;102025.25;5106536;28;20023;-69
2022/05/21 07:20:11;;;;;;;21.95;10.35;;;;;;;14.69;75.71;102037.88;5112440;28;20390;-69
2022/05/21 07:22:45;;;;;;;19.80;9.88;;;;;;;14.67;76.43;102040.69;5110112;28;20023;-72
2022/05/21 07:25:14;;;;;;;27.80;10.27;;;;;;;14.66;75.84;102029.84;5109488;28;20039;-72
2022/05/21 07:27:40;;;;;;;23.10;9.85;;;;;;;14.70;75.60;102039.63;5098678;28;20032;-68
2022/05/21 07:30:07;;;;;;;43.97;10.55;;;;;;;14.74;75.01;102044.75;5108979;28;20047;-68
2022/05/21 07:32:32;;;;;;;28.35;9.32;;;;;;;14.78;74.84;102039.91;5111326;28;20402;-68
2022/05/21 07:35:08;;;;;;;20.17;8.63;;;;;;;14.87;75.21;102052.97;5111339;28;20039;-68
2022/05/21 07:37:34;;;;;;;23.38;9.18;;;;;;;14.96;74.76;102041.34;5092935;28;20028;-72
2022/05/21 07:40:01;;;;;;;19.80;9.00;;;;;;;15.10;74.11;102042.22;5098911;28;20123;-71
2022/05/21 07:42:26;;;;;;;20.02;8.70;;;;;;;15.29;74.64;102031.66;5092124;28;20596;-67
2022/05/21 07:44:51;;;;;;;20.70;9.13;;;;;;;15.50;74.40;102046.53;5092952;28;20028;-72
2022/05/21 07:47:17;;;;;;;28.90;10.65;;;;;;;15.54;72.52;102034.34;5098606;28;20063;-68
2022/05/21 07:49:43;;;;;;;25.30;9.82;;;;;;;15.66;71.83;102046.31;5098255;28;20055;-69
2022/05/21 07:52:09;;;;;;;17.80;9.13;;;;;;;15.75;71.82;102047.50;5103611;28;20481;-68
2022/05/21 07:54:35;;;;;;;17.42;9.73;;;;;;;15.85;71.67;102056.78;5098329;28;20080;-71
2022/05/21 07:57:01;;;;;;;20.65;8.93;;;;;;;15.95;70.45;102056.97;5096064;28;20027;-71
2022/05/21 07:59:28;;;;;;;17.48;9.07;;;;;;;16.06;71.12;102046.91;5101865;28;20047;-72
2022/05/21 08:01:54;;;;;;;18.98;8.82;;;;;;;16.04;70.48;102043.44;5099322;28;20032;-69
2022/05/21 08:04:19;;;;;;;20.00;9.05;;;;;;;16.07;70.19;102051.41;5109278;28;20031;-67
2022/05/21 08:06:45;;;;;;;27.83;9.98;;;;;;;16.04;71.41;102054.41;5088821;28;20082;-67
2022/05/21 08:09:10;;;;;;;27.17;10.65;;;;;;;16.07;71.37;102064.25;5093745;28;20574;-69
2022/05/21 08:11:36;;;;;;;22.70;10.45;;;;;;;16.21;73.51;102060.47;5090830;28;20024;-70
2022/05/21 08:14:01;;;;;;;24.02;9.30;;;;;;;16.54;72.28;102067.97;5091114;28;20380;-70
2022/05/21 08:16:27;;;;;;;17.38;9.07;;;;;;;16.80;69.57;102058.56;5096816;28;20147;-68
2022/05/21 08:18:53;;;;;;;19.92;8.18;;;;;;;16.86;68.17;102065.47;5096894;28;20505;-70
2022/05/21 08:21:18;;;;;;;25.13;8.07;;;;;;;16.90;69.40;102072.47;5106466;28;20120;-73
2022/05/21 08:29:11;;;;;;;13.95;7.32;;;;;;;17.04;67.36;102068.63;5110511;28;20068;-71
2022/05/21 08:31:37;;;;;;;16.38;7.60;;;;;;;17.12;68.37;102070.75;5111298;28;20023;-69
2022/05/21 08:34:03;;;;;;;20.42;8.13;;;;;;;17.22;65.52;102069.00;5111282;28;20116;-67
2022/05/21 08:36:29;;;;;;;17.15;7.75;;;;;;;17.36;66.83;102077.00;5107562;28;20382;-70
2022/05/21 08:38:54;;;;;;;24.40;7.95;;;;;;;17.48;65.07;102064.09;5105641;28;20027;-72
2022/05/21 08:41:23;;;;;;;22.65;7.32;;;;;;;17.65;64.22;102065.47;5097280;28;20051;-67
2022/05/21 08:43:54;;;;;;;17.35;7.38;;;;;;;17.83;66.29;102072.25;5093425;28;20491;-72
2022/05/21 08:46:35;;;;;;;14.13;6.55;;;;;;;17.93;64.06;102081.47;5093343;28;20425;-70
2022/05/21 08:49:07;;;;;;;16.00;6.95;;;;;;;18.07;64.79;102077.56;5090385;28;20039;-69
2022/05/21 08:51:49;;;;;;;13.68;6.30;;;;;;;18.18;62.98;102068.38;5093077;28;20046;-72
2022/05/21 08:54:18;;;;;;;15.82;7.70;;;;;;;18.69;62.97;102064.91;5094977;28;20052;-70
2022/05/21 08:56:44;;;;;;;14.80;7.20;;;;;;;19.02;61.18;102066.59;5090463;28;20028;-69
2022/05/21 08:59:10;;;;;;;26.08;8.05;;;;;;;19.15;61.08;102056.19;5090505;28;20043;-70
2022/05/21 09:01:39;;;;;;;16.70;8.27;;;;;;;18.99;60.61;102062.22;5100133;28;20046;-72
2022/05/21 09:04:05;;;;;;;19.33;7.35;;;;;;;18.83;60.71;102065.44;5101243;28;20617;-70
2022/05/21 09:06:38;;;;;;;18.48;9.00;;;;;;;18.59;60.28;102051.03;5094316;28;20398;-67
2022/05/21 09:09:10;;;;;;;14.02;7.47;;;;;;;18.80;60.88;102059.34;5094493;28;20027;-71
2022/05/21 09:11:53;;;;;;;12.27;6.60;;;;;;;19.28;62.15;102056.84;5097651;28;20113;-69
2022/05/21 09:14:33;;;;;;;15.30;5.78;;;;;;;19.41;59.89;102053.00;5101166;28;20031;-66
2022/05/21 09:17:00;;;;;;;12.80;5.93;;;;;;;19.34;59.54;102049.91;5098066;28;20035;-71
2022/05/21 09:19:49;;;;;;;12.23;6.22;;;;;;;19.45;60.14;102047.06;5106761;28;20024;-67
2022/05/21 09:22:17;;;;;;;15.77;5.53;;;;;;;19.63;60.25;102044.50;5096005;28;20144;-72
2022/05/21 09:24:45;;;;;;;15.38;5.95;;;;;;;19.79;57.38;102044.00;5103709;28;20055;-71
2022/05/21 09:27:33;;;;;;;14.88;6.72;;;;;;;19.78;56.47;102045.88;5093270;28;20092;-67
2022/05/21 09:30:27;;;;;;;17.70;6.72;;;;;;;19.41;58.09;102051.09;5107723;28;20560;-70
2022/05/21 09:32:56;;;;;;;13.02;6.18;;;;;;;19.06;58.11;102052.38;5103314;28;20035;-71
2022/05/21 09:35:31;;;;;;;13.73;6.20;;;;;;;18.84;60.59;102055.31;5104498;28;20024;-70
2022/05/21 09:38:11;;;;;;;14.60;6.68;;;;;;;18.62;60.94;102061.81;5096416;28;20046;-69
2022/05/21 09:40:39;;;;;;;15.50;6.05;;;;;;;18.53;61.13;102057.09;5104374;28;20036;-72
2022/05/21 09:46:21;;;;;;;13.38;6.55;;;;;;;19.65;61.08;102063.72;5097486;28;20035;-71
2022/05/21 09:48:48;;;;;;;15.43;6.40;;;;;;;20.16;58.61;102055.25;5092696;28;20687;-71
2022/05/21 09:51:26;;;;;;;13.75;6.28;;;;;;;20.67;59.21;102058.78;5090149;28;20028;-70
2022/05/21 09:53:53;;;;;;;20.13;6.72;;;;;;;20.56;55.21;102059.78;5100356;28;20043;-73
2022/05/21 09:56:31;;;;;;;14.60;6.22;;;;;;;20.29;54.72;102071.56;5095236;28;20028;-67
2022/05/21 09:59:13;;;;;;;16.65;5.82;;;;;;;19.73;56.28;102067.53;5105215;28;20364;-73
2022/05/21 10:01:42;;;;;;;12.35;5.28;;;;;;;19.27;56.28;102076.31;5102240;28;20032;-66
2022/05/21 10:04:17;;;;;;;11.18;5.20;;;;;;;18.90;57.66;102068.56;5109992;28;20490;-70
2022/05/21 10:06:58;;;;;;;13.73;5.63;;;;;;;18.82;59.73;102066.47;5109030;28;20495;-66
2022/05/21 10:12:27;;;;;;;12.35;5.60;;;;;;;19.18;61.28;102064.22;5110351;28;20440;-72
2022/05/21 10:15:04;;;;;;;13.98;5.05;;;;;;;19.51;59.26;102064.94;5109928;28;20039;-67
2022/05/21 10:17:45;;;;;;;10.75;4.65;;;;;;;19.57;58.38;102065.25;5109183;28;20046;-67
2022/05/21 10:20:44;;;;;;;14.95;5.43;;;;;;;19.57;59.84;102068.00;5111304;28;20035;-67
2022/05/21 10:23:37;;;;;;;12.40;5.32;;;;;;;19.35;58.86;102066.34;5100091;28;20050;-67
2022/05/21 10:26:31;;;;;;;10.02;4.47;;;;;;;19.14;59.24;102071.03;5113025;28;20073;-71
2022/05/21 10:29:20;;;;;;;10.77;4.70;;;;;;;18.96;59.47;102078.16;5101103;28;20043;-72
2022/05/21 10:32:01;;;;;;;13.00;4.85;;;;;;;18.88;60.40;102073.31;5114018;27;20039;-70
2022/05/21 10:34:45;;;;;;;16.15;5.43;;;;;;;18.73;58.62;102067.28;5114138;28;20137;-67
2022/05/21 10:37:36;;;;;;;11.82;4.90;;;;;;;18.68;61.31;102079.69;5112719;28;20485;-67
2022/05/21 10:40:23;;;;;;;9.07;6.10;;;;;;;18.50;59.53;102077.50;5110451;28;20039;-67
2022/05/21 10:43:06;;;;;;;17.05;7.35;;;;;;;18.49;61.87;102072.13;5113687;28;20386;-67
2022/05/21 10:45:41;;;;;;;16.35;7.40;;;;;;;18.89;62.58;102077.84;5113850;28;20080;-71
2022/05/21 10:48:15;;;;;;;14.57;6.05;;;;;;;19.47;60.86;102072.63;5112188;28;20127;-68
2022/05/21 10:51:08;;;;;;;10.65;5.38;;;;;;;19.77;59.87;102077.28;5112159;28;20435;-67
2022/05/21 10:53:51;;;;;;;9.90;4.93;;;;;;;19.90;59.46;102076.13;5111403;28;20020;-72
2022/05/21 10:56:56;;;;;;;9.68;5.15;;;;;;;19.62;58.10;102075.91;5102503;28;20118;-67
2022/05/21 10:59:48;;;;;;;13.45;5.00;;;;;;;19.34;58.08;102077.50;5112249;28;20075;-70
2022/05/21 11:02:47;;;;;;;11.25;4.10;;;;;;;19.47;60.32;102085.56;5113140;28;20035;-67
2022/05/21 11:05:40;;;;;;;10.88;3.65;;;;;;;19.98;57.92;102079.94;5098773;28;20035;-67
2022/05/21 11:08:06;;;;;;;8.63;3.28;;;;;;;20.22;55.94;102078.66;5111169;28;20055;-68
2022/05/21 11:10:51;;;;;;;11.20;3.67;;;;;;;20.32;55.42;102083.16;5112003;28;20070;-70
2022/05/21 11:13:36;;;;;;;12.18;3.83;;;;;;;20.27;55.26;102082.72;5113412;28;20069;-67
2022/05/21 11:16:12;;;;;;;14.73;4.47;;;;;;;20.26;55.78;102088.41;5113076;28;20062;-72
2022/05/21 11:18:53;;;;;;;10.23;3.50;;;;;;;20.31;56.24;102089.72;5111774;28;20035;-71
2022/05/21 11:21:26;;;;;;;17.10;4.28;;;;;;;20.26;55.38;102096.72;5100087;28;20036;-67
2022/05/21 11:24:03;;;;;;;13.50;4.30;;;;;;;20.00;55.51;102090.84;5109799;28;20089;-73
2022/05/21 11:26:45;;;;;;;10.85;4.53;;;;;;;20.01;56.90;102093.47;5113367;27;20080;-71
2022/05/21 11:29:36;;;;;;;11.13;4.60;;;;;;;20.43;56.18;102084.06;5100118;28;20395;-67
2022/05/21 11:37:48;;;;;;;11.27;3.75;;;;;;;20.09;54.20;102082.56;5111371;28;20031;-66
2022/05/21 11:41:24;;;;;;;7.55;4.07;;;;;;;20.07;57.01;102090.13;5109267;28;20055;-68
2022/05/21 11:47:05;;;;;;;10.20;3.30;;;;;;;20.48;53.49;102068.81;5111813;28;20044;-72
2022/05/21 11:49:36;;;;;;;10.18;2.95;;;;;;;20.73;52.68;102078.41;5098890;28;20039;-70
2022/05/21 11:52:27;;;;;;;8.27;3.33;;;;;;;20.70;53.04;102075.03;5111155;28;20035;-67
2022/05/21 11:54:58;;;;;;;7.03;2.90;;;;;;;20.95;54.59;102071.66;5090789;28;20077;-67
2022/05/21 11:57:38;;;;;;;10.38;3.15;;;;;;;21.09;52.68;102071.19;5107760;28;20118;-70
2022/05/21 12:00:16;;;;;;;8.75;3.10;;;;;;;20.83;50.30;102059.03;5096840;28;20166;-68